createdAt,value
2022-11-02T00:01:45.539Z,14.98
2022-11-02T00:06:47.290Z,14.23
2022-11-02T00:11:48.916Z,14.38
2022-11-02T00:16:50.819Z,14.88
2022-11-02T00:21:52.882Z,14.55
2022-11-02T00:26:55.163Z,15.57
2022-11-02T00:31:56.794Z,15.13
2022-11-02T00:36:58.598Z,13.40
2022-11-02T00:42:00.293Z,16.70
2022-11-02T00:47:01.904Z,15.23
2022-11-02T00:52:03.798Z,15.85
2022-11-02T00:57:05.545Z,14.88
2022-11-02T01:02:08.084Z,15.98
2022-11-02T01:07:09.959Z,16.33
2022-11-02T01:12:11.547Z,15.18
2022-11-02T01:17:13.232Z,13.93
2022-11-02T01:22:15.995Z,15.77
2022-11-02T01:27:17.600Z,11.60
2022-11-02T01:32:19.610Z,14.52
2022-11-02T01:37:21.458Z,14.90
2022-11-02T01:42:25.369Z,13.23
2022-11-02T01:47:35.195Z,13.15
2022-11-02T01:52:38.075Z,15.98
2022-11-02T01:57:41.421Z,14.95
2022-11-02T02:02:47.538Z,15.10
2022-11-02T02:07:50.373Z,13.60
2022-11-02T02:12:52.599Z,13.13
2022-11-02T02:18:01.276Z,12.82
2022-11-02T02:23:13.930Z,11.68
2022-11-02T02:28:25.206Z,11.43
2022-11-02T02:33:33.391Z,11.35
2022-11-02T02:38:44.671Z,10.32
2022-11-02T02:43:50.798Z,11.10
2022-11-02T02:48:54.628Z,9.95
2022-11-02T02:54:03.453Z,9.57
2022-11-02T02:59:08.105Z,8.50
2022-11-02T03:04:12.682Z,8.32
2022-11-02T03:09:23.883Z,6.70
2022-11-02T03:14:40.423Z,8.70
2022-11-02T03:19:55.648Z,6.07
2022-11-02T03:25:17.799Z,7.75
2022-11-02T03:30:23.287Z,6.85
2022-11-02T03:35:34.829Z,7.22
2022-11-02T03:40:44.331Z,5.32
2022-11-02T03:45:58.185Z,7.55
2022-11-02T03:51:05.290Z,6.30
2022-11-02T03:56:10.229Z,7.22
2022-11-02T04:01:15.156Z,6.63
2022-11-02T04:06:17.860Z,7.88
2022-11-02T04:11:38.326Z,7.90
2022-11-02T04:16:44.207Z,8.52
2022-11-02T04:22:17.189Z,8.10
2022-11-02T04:27:22.770Z,6.20
2022-11-02T04:32:44.784Z,6.25
2022-11-02T04:38:08.735Z,6.20
2022-11-02T04:43:13.655Z,5.82
2022-11-02T04:48:15.948Z,4.60
2022-11-02T04:53:17.856Z,6.43
2022-11-02T04:58:20.292Z,5.88
2022-11-02T05:03:22.696Z,6.18
2022-11-02T05:08:24.406Z,6.10
2022-11-02T05:13:26.879Z,5.85
2022-11-02T05:18:31.826Z,6.47
2022-11-02T05:23:33.540Z,5.10
2022-11-02T05:28:36.122Z,4.93
2022-11-02T05:33:39.741Z,5.93
2022-11-02T05:38:55.625Z,4.78
2022-11-02T05:43:58.028Z,4.97
2022-11-02T05:49:02.693Z,4.22
2022-11-02T05:54:04.540Z,5.00
2022-11-02T05:59:06.191Z,4.70
2022-11-02T06:04:08.029Z,4.53
2022-11-02T06:09:09.732Z,5.00
2022-11-02T06:14:11.452Z,5.20
2022-11-02T06:19:16.131Z,4.03
2022-11-02T06:24:17.841Z,4.38
2022-11-02T06:29:19.454Z,3.28
2022-11-02T06:34:21.033Z,4.10
2022-11-02T06:39:22.811Z,3.35
2022-11-02T06:44:24.488Z,3.88
2022-11-02T06:49:26.121Z,3.17
2022-11-02T06:54:27.715Z,3.53
2022-11-02T06:59:29.310Z,3.20
2022-11-02T07:04:30.931Z,3.03
2022-11-02T07:09:35.931Z,2.55
2022-11-02T07:14:37.545Z,3.55
2022-11-02T07:19:39.181Z,2.25
2022-11-02T07:24:40.844Z,3.20
2022-11-02T07:29:42.485Z,3.10
2022-11-02T07:34:44.067Z,3.00
2022-11-02T07:39:45.673Z,3.30
2022-11-02T07:44:47.317Z,3.35
2022-11-02T07:49:49.137Z,3.33
2022-11-02T07:54:50.762Z,3.53
2022-11-02T07:59:52.349Z,3.05
2022-11-02T08:04:53.933Z,3.53
2022-11-02T08:09:55.556Z,3.90
2022-11-02T08:14:59.009Z,3.88
2022-11-02T08:20:03.052Z,3.80
2022-11-02T08:25:05.513Z,2.80
2022-11-02T08:30:08.014Z,3.10
2022-11-02T08:35:09.706Z,3.85
2022-11-02T08:40:11.864Z,3.05
2022-11-02T08:45:13.539Z,1.40
2022-11-02T08:50:15.215Z,1.45
2022-11-02T08:55:17.118Z,0.95
2022-11-02T09:00:20.584Z,1.08
2022-11-02T09:05:22.223Z,0.68
2022-11-02T09:10:23.888Z,1.58
2022-11-02T09:15:25.502Z,2.35
2022-11-02T09:20:27.216Z,1.20
2022-11-02T09:25:28.891Z,2.03
2022-11-02T09:30:30.558Z,0.95
2022-11-02T09:35:34.544Z,1.27
2022-11-02T09:40:59.339Z,0.75
2022-11-02T09:46:08.360Z,1.30
2022-11-02T09:51:19.002Z,0.50
2022-11-02T09:56:20.876Z,0.77
2022-11-02T10:01:34.846Z,0.60
2022-11-02T10:06:37.995Z,0.70
2022-11-02T10:11:55.258Z,0.60
2022-11-02T10:16:59.520Z,0.93
2022-11-02T10:22:01.283Z,0.93
2022-11-02T10:27:13.875Z,0.98
2022-11-02T10:32:16.341Z,0.60
2022-11-02T10:37:37.487Z,0.80
2022-11-02T10:43:01.092Z,0.65
2022-11-02T10:48:38.338Z,0.73
2022-11-02T10:53:42.728Z,1.17
2022-11-02T10:58:51.400Z,0.98
2022-11-02T11:04:03.030Z,0.63
2022-11-02T11:09:20.317Z,0.70
2022-11-02T11:19:52.609Z,0.75
2022-11-02T11:25:27.644Z,0.60
2022-11-02T11:35:56.664Z,1.02
2022-11-02T11:40:59.652Z,0.90
2022-11-02T11:46:06.478Z,1.23
2022-11-02T11:51:31.821Z,0.60
2022-11-02T11:56:33.988Z,0.70
2022-11-02T12:01:40.024Z,0.90
2022-11-02T12:07:15.777Z,0.90
2022-11-02T12:12:30.487Z,1.35
2022-11-02T12:17:55.461Z,0.35
2022-11-02T12:23:15.309Z,0.60
2022-11-02T12:28:50.758Z,0.75
2022-11-02T12:34:10.669Z,0.93
2022-11-02T12:39:35.460Z,1.10
2022-11-02T12:45:01.925Z,1.23
2022-11-02T12:50:24.531Z,0.60
2022-11-02T12:55:37.302Z,0.70
2022-11-02T13:00:43.057Z,1.20
2022-11-02T13:05:54.230Z,1.75
2022-11-02T13:10:59.280Z,0.82
2022-11-02T13:16:01.436Z,0.82
2022-11-02T13:21:04.308Z,0.82
2022-11-02T13:26:27.517Z,0.50
2022-11-02T13:31:44.902Z,0.98
2022-11-02T13:36:47.030Z,0.60
2022-11-02T13:42:25.643Z,0.98
2022-11-02T13:47:33.225Z,0.70
2022-11-02T13:52:40.983Z,0.55
2022-11-02T13:58:03.127Z,1.05
2022-11-02T14:03:08.132Z,0.75
2022-11-02T14:08:11.550Z,1.23
2022-11-02T14:13:13.822Z,1.42
2022-11-02T14:18:27.084Z,1.13
2022-11-02T14:23:35.319Z,0.70
2022-11-02T14:28:43.650Z,0.88
2022-11-02T14:34:08.400Z,0.50
2022-11-02T14:44:24.139Z,0.90
2022-11-02T14:49:28.326Z,0.52
2022-11-02T14:54:32.495Z,0.90
2022-11-02T14:59:38.374Z,0.80
2022-11-02T15:09:59.216Z,0.60
2022-11-02T15:15:05.952Z,1.27
2022-11-02T15:20:16.708Z,0.52
2022-11-02T15:25:24.407Z,0.88
2022-11-02T15:30:28.558Z,1.10
2022-11-02T15:35:34.895Z,0.93
2022-11-02T15:46:14.018Z,0.50
2022-11-02T15:51:19.708Z,1.15
2022-11-02T15:56:45.938Z,1.38
2022-11-02T16:02:02.652Z,0.93
2022-11-02T16:07:05.581Z,0.77
2022-11-02T16:12:21.567Z,0.90
2022-11-02T16:17:24.686Z,1.77
2022-11-02T16:22:26.947Z,1.02
2022-11-02T16:27:28.555Z,1.13
2022-11-02T16:32:30.284Z,2.00
2022-11-02T16:37:32.424Z,3.00
2022-11-02T16:42:34.034Z,2.58
2022-11-02T16:47:40.595Z,1.33
2022-11-02T16:52:42.217Z,0.90
2022-11-02T16:57:45.134Z,1.13
2022-11-02T17:02:47.437Z,1.48
2022-11-02T17:08:01.233Z,1.42
2022-11-02T17:13:07.187Z,1.90
2022-11-02T17:18:09.154Z,0.75
2022-11-02T17:23:31.849Z,0.90
2022-11-02T17:28:33.373Z,1.70
2022-11-02T17:33:35.135Z,2.15
2022-11-02T17:38:36.779Z,1.65
2022-11-02T17:43:38.377Z,2.28
2022-11-02T17:48:40.075Z,1.33
2022-11-02T17:53:42.175Z,2.03
2022-11-02T17:58:43.777Z,1.40
2022-11-02T18:03:45.419Z,1.35
2022-11-02T18:09:05.662Z,2.78
2022-11-02T18:14:13.399Z,2.30
2022-11-02T18:19:16.757Z,3.25
2022-11-02T18:24:18.935Z,2.97
2022-11-02T18:29:20.557Z,2.97
2022-11-02T18:34:22.148Z,3.17
2022-11-02T18:39:23.761Z,2.70
2022-11-02T18:44:25.349Z,1.98
2022-11-02T18:49:26.976Z,1.83
2022-11-02T18:54:28.573Z,1.80
2022-11-02T18:59:30.243Z,1.80
2022-11-02T19:04:32.500Z,1.80
2022-11-02T19:09:35.878Z,1.45
2022-11-02T19:14:42.360Z,1.42
2022-11-02T19:19:45.487Z,1.88
2022-11-02T19:24:47.364Z,2.45
2022-11-02T19:29:49.236Z,2.28
2022-11-02T19:34:50.811Z,2.05
2022-11-02T19:39:52.389Z,3.92
2022-11-02T19:44:53.955Z,2.05
2022-11-02T19:49:55.604Z,2.90
2022-11-02T19:54:57.300Z,3.20
2022-11-02T19:59:58.917Z,2.60
2022-11-02T20:05:00.547Z,2.70
2022-11-02T20:10:02.156Z,2.97
2022-11-02T20:15:04.545Z,2.95
2022-11-02T20:20:06.760Z,3.38
2022-11-02T20:25:08.861Z,2.30
2022-11-02T20:30:11.604Z,4.35
2022-11-02T20:35:13.951Z,2.53
2022-11-02T20:40:16.009Z,2.40
2022-11-02T20:45:18.399Z,2.83
2022-11-02T20:50:24.803Z,2.78
2022-11-02T20:55:27.584Z,2.45
2022-11-02T21:00:29.240Z,3.75
2022-11-02T21:05:30.957Z,2.92
2022-11-02T21:10:32.563Z,2.80
2022-11-02T21:15:37.194Z,3.67
2022-11-02T21:20:38.964Z,3.22
2022-11-02T21:25:40.632Z,2.53
2022-11-02T21:30:42.222Z,2.35
2022-11-02T21:35:43.791Z,3.60
2022-11-02T21:40:45.381Z,4.97
2022-11-02T21:45:58.564Z,4.10
2022-11-02T21:51:12.914Z,4.03
2022-11-02T21:56:19.824Z,4.50
2022-11-02T22:01:45.188Z,5.25
2022-11-02T22:06:47.751Z,5.28
2022-11-02T22:12:09.330Z,11.63
2022-11-02T22:17:21.853Z,4.97
2022-11-02T22:22:30.225Z,4.75
2022-11-02T22:27:31.858Z,5.38
2022-11-02T22:32:33.897Z,4.57
2022-11-02T22:37:53.811Z,5.55
2022-11-02T22:42:55.957Z,4.32
2022-11-02T22:47:57.550Z,4.13
2022-11-02T22:52:59.124Z,4.03
2022-11-02T22:58:00.786Z,4.75
2022-11-02T23:03:02.541Z,4.38
2022-11-02T23:08:04.496Z,3.85
2022-11-02T23:13:06.418Z,3.50
2022-11-02T23:18:08.345Z,3.97
2022-11-02T23:23:28.280Z,4.78
2022-11-02T23:28:48.448Z,4.60
2022-11-02T23:33:50.034Z,3.70
2022-11-02T23:39:09.957Z,3.88
2022-11-02T23:44:12.164Z,3.60
2022-11-02T23:49:16.810Z,3.25
2022-11-02T23:54:36.661Z,4.13
2022-11-02T23:59:38.654Z,3.97
